createdAt,value
2019-03-31T00:02:17.996Z,13.80
2019-03-31T00:04:51.369Z,7.80
2019-03-31T00:07:24.343Z,10.70
2019-03-31T00:09:57.274Z,11.83
2019-03-31T00:12:59.469Z,12.23
2019-03-31T00:15:35.348Z,12.67
2019-03-31T00:19:07.220Z,9.97
2019-03-31T00:21:41.583Z,9.10
2019-03-31T00:24:14.567Z,13.57
2019-03-31T00:26:50.528Z,10.27
2019-03-31T00:29:23.099Z,15.20
2019-03-31T00:31:55.605Z,13.27
2019-03-31T00:34:28.224Z,10.50
2019-03-31T00:37:01.525Z,9.93
2019-03-31T00:39:34.580Z,9.47
2019-03-31T00:42:07.090Z,9.70
2019-03-31T00:44:39.587Z,10.53
2019-03-31T00:47:12.124Z,9.67
2019-03-31T00:49:44.649Z,10.00
2019-03-31T00:52:17.795Z,9.17
2019-03-31T00:54:50.280Z,10.10
2019-03-31T00:57:23.244Z,8.83
2019-03-31T00:59:55.748Z,7.10
2019-03-31T01:02:31.571Z,12.47
2019-03-31T01:05:07.441Z,14.30
2019-03-31T01:07:41.047Z,9.80
2019-03-31T01:10:13.863Z,10.40
2019-03-31T01:12:46.852Z,18.77
2019-03-31T01:15:23.323Z,12.73
2019-03-31T01:17:56.223Z,11.77
2019-03-31T01:20:28.767Z,11.07
2019-03-31T01:23:01.805Z,14.93
2019-03-31T01:25:34.544Z,18.90
2019-03-31T01:28:07.011Z,11.03
2019-03-31T01:30:39.506Z,19.93
2019-03-31T01:33:12.099Z,13.83
2019-03-31T01:35:44.596Z,9.37
2019-03-31T01:38:17.772Z,14.03
2019-03-31T01:40:50.322Z,15.60
2019-03-31T01:43:22.832Z,14.97
2019-03-31T01:45:55.598Z,9.83
2019-03-31T01:48:28.336Z,16.70
2019-03-31T01:51:00.891Z,14.03
2019-03-31T01:53:48.488Z,11.73
2019-03-31T01:56:21.123Z,10.27
2019-03-31T01:58:53.805Z,8.90
2019-03-31T02:01:26.279Z,10.27
2019-03-31T02:04:00.475Z,10.00
2019-03-31T02:06:33.560Z,10.37
2019-03-31T02:09:14.884Z,10.30
2019-03-31T02:11:49.459Z,10.17
2019-03-31T02:14:23.231Z,9.73
2019-03-31T02:16:55.699Z,10.37
2019-03-31T02:19:28.265Z,9.90
2019-03-31T02:22:00.877Z,16.70
2019-03-31T02:24:34.498Z,9.13
2019-03-31T02:27:07.296Z,8.97
2019-03-31T02:29:39.787Z,13.00
2019-03-31T02:32:23.255Z,10.47
2019-03-31T02:34:46.521Z,12.47
2019-03-31T02:37:19.411Z,8.13
2019-03-31T02:39:52.555Z,9.43
2019-03-31T02:42:25.239Z,8.93
2019-03-31T02:44:57.879Z,7.60
2019-03-31T02:47:30.894Z,11.47
2019-03-31T02:50:03.678Z,16.67
2019-03-31T02:52:37.122Z,12.33
2019-03-31T02:55:13.828Z,11.90
2019-03-31T02:57:46.401Z,12.13
2019-03-31T03:00:19.014Z,10.17
2019-03-31T03:02:52.637Z,11.60
2019-03-31T03:05:27.955Z,11.67
2019-03-31T03:08:01.825Z,9.37
2019-03-31T03:10:37.806Z,9.20
2019-03-31T03:13:12.139Z,9.60
2019-03-31T03:16:29.045Z,8.10
2019-03-31T03:19:01.506Z,11.30
2019-03-31T03:21:34.242Z,8.77
2019-03-31T03:24:07.227Z,8.70
2019-03-31T03:26:41.270Z,11.73
2019-03-31T03:29:16.581Z,9.10
2019-03-31T03:32:01.610Z,11.83
2019-03-31T03:34:40.665Z,8.87
2019-03-31T03:37:14.894Z,10.97
2019-03-31T03:39:51.076Z,12.57
2019-03-31T03:42:24.537Z,8.47
2019-03-31T03:44:57.168Z,7.60
2019-03-31T03:47:30.235Z,8.83
2019-03-31T03:50:02.797Z,11.67
2019-03-31T03:52:35.452Z,8.40
2019-03-31T03:55:08.298Z,11.90
2019-03-31T03:57:41.782Z,9.73
2019-03-31T04:00:14.435Z,9.30
2019-03-31T04:02:47.271Z,8.70
2019-03-31T04:05:20.617Z,11.40
2019-03-31T04:07:53.141Z,10.37
2019-03-31T04:11:23.586Z,12.03
2019-03-31T04:13:57.461Z,6.97
2019-03-31T04:16:30.860Z,8.63
2019-03-31T04:19:03.990Z,9.37
2019-03-31T04:21:38.354Z,10.00
2019-03-31T04:24:10.941Z,6.60
2019-03-31T04:26:43.702Z,9.40
2019-03-31T04:29:17.236Z,7.33
2019-03-31T04:31:49.818Z,9.90
2019-03-31T04:34:22.935Z,10.33
2019-03-31T04:36:55.544Z,8.80
2019-03-31T04:39:28.608Z,9.53
2019-03-31T04:42:01.253Z,7.50
2019-03-31T04:44:34.975Z,11.10
2019-03-31T04:47:07.741Z,8.23
2019-03-31T04:49:40.534Z,7.97
2019-03-31T04:52:13.011Z,12.93
2019-03-31T04:54:45.831Z,8.07
2019-03-31T04:57:18.263Z,6.63
2019-03-31T04:59:51.489Z,7.50
2019-03-31T05:02:26.988Z,9.87
2019-03-31T05:04:58.486Z,9.77
2019-03-31T05:07:31.036Z,8.53
2019-03-31T05:10:03.677Z,9.67
2019-03-31T05:12:36.200Z,8.30
2019-03-31T05:15:09.507Z,11.53
2019-03-31T05:17:42.932Z,8.37
2019-03-31T05:20:15.567Z,8.93
2019-03-31T05:22:48.032Z,7.47
2019-03-31T05:25:20.743Z,10.03
2019-03-31T05:27:53.205Z,11.20
2019-03-31T05:30:26.310Z,19.90
2019-03-31T05:32:58.766Z,15.60
2019-03-31T05:35:31.314Z,8.83
2019-03-31T05:38:03.806Z,10.57
2019-03-31T05:40:36.457Z,11.03
2019-03-31T05:43:08.922Z,8.63
2019-03-31T05:45:42.139Z,12.43
2019-03-31T05:48:14.751Z,9.50
2019-03-31T05:50:47.254Z,12.20
2019-03-31T05:53:19.795Z,9.63
2019-03-31T05:55:52.332Z,8.10
2019-03-31T05:58:25.012Z,12.93
2019-03-31T06:00:58.240Z,9.87
2019-03-31T06:03:30.921Z,20.53
2019-03-31T06:06:03.533Z,12.27
2019-03-31T06:08:36.372Z,9.13
2019-03-31T06:11:08.946Z,7.57
2019-03-31T06:13:41.891Z,13.53
2019-03-31T06:16:14.992Z,9.47
2019-03-31T06:18:48.275Z,12.90
2019-03-31T06:21:20.779Z,10.40
2019-03-31T06:23:53.349Z,9.97
2019-03-31T06:26:26.268Z,8.53
2019-03-31T06:28:59.659Z,9.27
2019-03-31T06:31:33.027Z,10.53
2019-03-31T06:34:07.888Z,10.13
2019-03-31T06:36:40.404Z,9.27
2019-03-31T06:39:12.917Z,9.33
2019-03-31T06:41:45.435Z,10.23
2019-03-31T06:44:18.231Z,11.83
2019-03-31T06:46:51.787Z,18.40
2019-03-31T06:49:24.403Z,12.47
2019-03-31T06:51:56.932Z,13.33
2019-03-31T06:54:29.478Z,11.63
2019-03-31T06:57:02.042Z,10.83
2019-03-31T06:59:34.750Z,13.00
2019-03-31T07:02:08.008Z,12.27
2019-03-31T07:04:40.995Z,15.47
2019-03-31T07:07:13.622Z,13.57
2019-03-31T07:09:49.005Z,12.97
2019-03-31T07:12:21.754Z,13.37
2019-03-31T07:14:55.065Z,10.97
2019-03-31T07:17:27.582Z,11.57
2019-03-31T07:20:00.813Z,12.27
2019-03-31T07:22:33.347Z,14.50
2019-03-31T07:25:08.928Z,11.37
2019-03-31T07:27:41.569Z,13.93
2019-03-31T07:30:15.207Z,12.87
2019-03-31T07:32:47.851Z,15.77
2019-03-31T07:35:20.990Z,12.20
2019-03-31T07:37:53.597Z,15.77
2019-03-31T07:40:26.336Z,11.00
2019-03-31T07:43:06.082Z,14.97
2019-03-31T07:45:36.774Z,16.57
2019-03-31T07:48:09.302Z,14.03
2019-03-31T07:50:43.054Z,14.40
2019-03-31T07:53:15.537Z,14.90
2019-03-31T07:55:48.508Z,13.97
2019-03-31T07:58:21.039Z,10.13
2019-03-31T08:00:53.576Z,16.83
2019-03-31T08:03:26.416Z,14.07
2019-03-31T08:05:59.667Z,13.80
2019-03-31T08:08:32.155Z,16.67
2019-03-31T08:11:04.965Z,14.57
2019-03-31T08:13:37.691Z,19.90
2019-03-31T08:16:11.347Z,15.00
2019-03-31T08:18:43.946Z,15.50
2019-03-31T08:21:18.335Z,16.20
2019-03-31T08:23:50.838Z,17.33
2019-03-31T08:26:23.346Z,15.60
2019-03-31T08:28:58.582Z,17.07
2019-03-31T08:31:30.202Z,19.30
2019-03-31T08:34:02.741Z,16.27
2019-03-31T08:36:35.882Z,15.77
2019-03-31T08:39:11.405Z,16.87
2019-03-31T08:41:44.716Z,18.37
2019-03-31T08:44:17.562Z,17.30
2019-03-31T08:46:50.219Z,20.30
2019-03-31T08:49:22.789Z,15.67
2019-03-31T08:51:56.026Z,18.50
2019-03-31T08:54:28.564Z,18.93
2019-03-31T08:57:01.683Z,19.60
2019-03-31T08:59:34.587Z,17.80
2019-03-31T09:02:29.039Z,20.87
2019-03-31T09:05:02.442Z,22.43
2019-03-31T09:07:35.546Z,20.67
2019-03-31T09:10:09.650Z,16.73
2019-03-31T09:12:42.436Z,20.37
2019-03-31T09:15:15.336Z,24.60
2019-03-31T09:17:47.886Z,23.50
2019-03-31T09:20:21.950Z,20.33
2019-03-31T09:22:55.568Z,21.33
2019-03-31T09:25:28.129Z,23.80
2019-03-31T09:28:01.299Z,24.17
2019-03-31T09:30:33.885Z,23.30
2019-03-31T09:33:06.666Z,28.50
2019-03-31T09:35:47.349Z,27.30
2019-03-31T09:38:20.579Z,19.60
2019-03-31T09:40:53.108Z,19.50
2019-03-31T09:43:25.680Z,20.50
2019-03-31T09:45:59.523Z,21.57
2019-03-31T09:48:32.390Z,24.23
2019-03-31T09:51:05.078Z,20.67
2019-03-31T09:53:38.287Z,22.80
2019-03-31T09:56:11.004Z,21.40
2019-03-31T09:58:43.534Z,21.60
2019-03-31T10:01:16.113Z,23.03
2019-03-31T10:03:49.768Z,27.17
2019-03-31T10:06:30.184Z,19.20
2019-03-31T10:08:58.067Z,21.83
2019-03-31T10:11:30.558Z,19.70
2019-03-31T10:14:03.242Z,19.97
2019-03-31T10:16:35.816Z,20.53
2019-03-31T10:19:08.427Z,17.00
2019-03-31T10:21:40.948Z,17.03
2019-03-31T10:24:14.245Z,27.53
2019-03-31T10:26:46.904Z,21.57
2019-03-31T10:29:19.535Z,25.93
2019-03-31T10:31:52.145Z,23.93
2019-03-31T10:34:24.638Z,26.50
2019-03-31T10:36:58.140Z,20.47
2019-03-31T10:39:31.403Z,22.77
2019-03-31T10:42:03.992Z,27.93
2019-03-31T10:44:36.570Z,22.53
2019-03-31T10:47:09.258Z,27.60
2019-03-31T10:49:41.923Z,22.33
2019-03-31T10:52:14.501Z,23.50
2019-03-31T10:54:48.002Z,17.67
2019-03-31T10:57:20.540Z,15.70
2019-03-31T10:59:53.456Z,18.07
2019-03-31T11:02:28.261Z,17.43
2019-03-31T11:05:01.055Z,15.20
2019-03-31T11:07:33.749Z,16.93
2019-03-31T11:10:07.369Z,15.10
2019-03-31T11:12:39.924Z,15.47
2019-03-31T11:15:12.521Z,11.07
2019-03-31T11:17:45.062Z,15.30
2019-03-31T11:20:17.721Z,12.90
2019-03-31T11:23:00.867Z,10.37
2019-03-31T11:25:34.591Z,14.40
2019-03-31T11:28:07.196Z,13.93
2019-03-31T11:30:41.415Z,12.70
2019-03-31T11:33:14.050Z,11.00
2019-03-31T11:35:47.162Z,10.70
2019-03-31T11:38:20.325Z,11.60
2019-03-31T11:40:53.881Z,13.37
2019-03-31T11:43:26.497Z,10.20
2019-03-31T11:45:59.209Z,15.83
2019-03-31T11:48:31.689Z,8.60
2019-03-31T11:51:04.257Z,11.97
2019-03-31T11:53:36.838Z,11.47
2019-03-31T11:56:10.084Z,19.80
2019-03-31T11:58:42.765Z,12.50
2019-03-31T12:01:15.621Z,11.43
2019-03-31T12:03:48.182Z,8.07
2019-03-31T12:06:20.848Z,8.90
2019-03-31T12:08:53.626Z,7.50
2019-03-31T12:11:26.138Z,6.37
2019-03-31T12:13:58.988Z,7.47
2019-03-31T12:16:31.553Z,10.40
2019-03-31T12:19:04.471Z,9.03
2019-03-31T12:21:37.038Z,5.50
2019-03-31T12:24:11.363Z,6.60
2019-03-31T12:26:43.970Z,4.97
2019-03-31T12:29:17.059Z,7.77
2019-03-31T12:31:50.350Z,5.90
2019-03-31T12:34:23.063Z,7.03
2019-03-31T12:36:55.593Z,6.43
2019-03-31T12:39:28.337Z,6.53
2019-03-31T12:42:01.109Z,5.90
2019-03-31T12:44:34.607Z,6.80
2019-03-31T12:47:07.350Z,6.47
2019-03-31T12:49:39.897Z,5.07
2019-03-31T12:52:12.491Z,7.63
2019-03-31T12:54:45.046Z,6.93
2019-03-31T12:57:17.531Z,6.63
2019-03-31T12:59:50.782Z,5.60
2019-03-31T13:02:23.259Z,5.00
2019-03-31T13:04:55.984Z,5.20
2019-03-31T13:07:28.806Z,5.13
2019-03-31T13:10:01.414Z,5.90
2019-03-31T13:12:35.133Z,5.20
2019-03-31T13:15:08.916Z,5.27
2019-03-31T13:17:41.431Z,4.60
2019-03-31T13:20:14.474Z,6.63
2019-03-31T13:22:47.012Z,6.60
2019-03-31T13:25:19.558Z,3.67
2019-03-31T13:27:52.051Z,4.90
2019-03-31T13:30:25.588Z,5.20
2019-03-31T13:32:58.131Z,8.37
2019-03-31T13:35:30.713Z,8.30
2019-03-31T13:38:10.813Z,8.43
2019-03-31T13:40:37.592Z,7.23
2019-03-31T13:43:10.139Z,6.40
2019-03-31T13:45:43.476Z,9.50
2019-03-31T13:48:16.019Z,6.37
2019-03-31T13:50:48.567Z,9.17
2019-03-31T13:53:21.024Z,13.10
2019-03-31T13:55:53.613Z,11.23
2019-03-31T13:58:28.502Z,7.90
2019-03-31T14:01:01.347Z,6.77
2019-03-31T14:03:33.850Z,6.67
2019-03-31T14:06:06.828Z,7.63
2019-03-31T14:08:39.383Z,8.97
2019-03-31T14:11:12.421Z,6.67
2019-03-31T14:13:44.970Z,5.53
2019-03-31T14:16:18.127Z,3.53
2019-03-31T14:18:50.827Z,7.87
2019-03-31T14:21:23.435Z,6.40
2019-03-31T14:23:55.953Z,5.63
2019-03-31T14:26:28.515Z,4.10
2019-03-31T14:29:01.376Z,4.17
2019-03-31T14:31:33.970Z,5.87
2019-03-31T14:34:07.052Z,4.80
2019-03-31T14:36:39.599Z,3.23
2019-03-31T14:39:12.337Z,7.97
2019-03-31T14:41:46.193Z,5.77
2019-03-31T14:44:18.733Z,4.20
2019-03-31T14:46:51.221Z,4.33
2019-03-31T14:49:25.956Z,5.00
2019-03-31T14:52:01.296Z,6.73
2019-03-31T14:54:33.067Z,4.80
2019-03-31T14:57:05.648Z,5.43
2019-03-31T14:59:38.326Z,6.07
2019-03-31T15:02:10.880Z,3.33
2019-03-31T15:04:43.987Z,3.67
2019-03-31T15:07:16.831Z,5.23
2019-03-31T15:09:49.907Z,4.57
2019-03-31T15:12:22.439Z,3.47
2019-03-31T15:14:55.187Z,2.93
2019-03-31T15:17:28.294Z,4.00
2019-03-31T15:20:00.896Z,4.57
2019-03-31T15:22:33.427Z,4.13
2019-03-31T15:25:06.456Z,3.93
2019-03-31T15:27:39.123Z,3.00
2019-03-31T15:30:12.111Z,3.10
2019-03-31T15:32:45.055Z,4.83
2019-03-31T15:35:17.646Z,3.40
2019-03-31T15:37:50.231Z,4.40
2019-03-31T15:40:23.238Z,4.60
2019-03-31T15:42:55.778Z,4.00
2019-03-31T15:45:28.725Z,10.27
2019-03-31T15:48:01.316Z,7.10
2019-03-31T15:50:34.036Z,4.23
2019-03-31T15:53:06.640Z,5.70
2019-03-31T15:55:39.618Z,6.60
2019-03-31T15:58:12.311Z,3.50
2019-03-31T16:00:45.116Z,4.03
2019-03-31T16:03:17.879Z,3.10
2019-03-31T16:05:50.716Z,2.90
2019-03-31T16:08:22.459Z,4.00
2019-03-31T16:10:54.652Z,6.80
2019-03-31T16:13:26.490Z,4.90
2019-03-31T16:15:58.361Z,4.27
2019-03-31T16:18:30.065Z,5.27
2019-03-31T16:21:01.911Z,3.17
2019-03-31T16:23:33.833Z,3.30
2019-03-31T16:26:06.465Z,2.80
2019-03-31T16:28:38.197Z,3.37
2019-03-31T16:31:09.928Z,3.77
2019-03-31T16:33:41.703Z,3.67
2019-03-31T16:36:13.645Z,3.13
2019-03-31T16:38:45.741Z,3.07
2019-03-31T16:41:17.640Z,6.80
2019-03-31T16:43:49.863Z,4.03
2019-03-31T16:46:21.588Z,9.20
2019-03-31T16:48:53.436Z,4.40
2019-03-31T16:51:25.344Z,4.80
2019-03-31T16:53:57.083Z,4.70
2019-03-31T16:56:28.814Z,4.30
2019-03-31T16:59:03.666Z,3.00
2019-03-31T17:01:35.454Z,4.30
2019-03-31T17:06:39.687Z,6.17
2019-03-31T17:09:11.544Z,7.03
2019-03-31T17:11:43.583Z,5.20
2019-03-31T17:14:15.942Z,9.77
2019-03-31T17:16:47.848Z,4.83
2019-03-31T17:19:19.655Z,4.30
2019-03-31T17:21:51.454Z,4.37
2019-03-31T17:24:23.869Z,4.87
2019-03-31T17:26:55.613Z,3.40
2019-03-31T17:29:28.441Z,3.83
2019-03-31T17:32:00.166Z,4.80
2019-03-31T17:34:31.872Z,4.20
2019-03-31T17:37:03.691Z,3.93
2019-03-31T17:39:35.433Z,6.73
2019-03-31T17:42:07.460Z,10.13
2019-03-31T17:44:39.998Z,5.83
2019-03-31T17:47:11.895Z,8.20
2019-03-31T17:49:43.688Z,5.57
2019-03-31T17:52:15.452Z,4.27
2019-03-31T17:54:47.354Z,5.27
2019-03-31T17:57:19.171Z,5.47
2019-03-31T17:59:51.560Z,4.73
2019-03-31T18:02:23.674Z,6.80
2019-03-31T18:04:55.717Z,4.57
2019-03-31T18:07:27.828Z,5.07
2019-03-31T18:09:59.585Z,5.07
2019-03-31T18:12:31.268Z,6.30
2019-03-31T18:15:04.062Z,6.33
2019-03-31T18:17:35.819Z,7.30
2019-03-31T18:20:09.453Z,14.77
2019-03-31T18:22:41.761Z,17.03
2019-03-31T18:25:13.771Z,11.40
2019-03-31T18:27:46.140Z,10.37
2019-03-31T18:30:18.552Z,6.67
2019-03-31T18:32:50.595Z,7.00
2019-03-31T18:35:22.508Z,8.50
2019-03-31T18:37:54.237Z,5.83
2019-03-31T18:40:34.954Z,8.63
2019-03-31T18:42:59.328Z,5.57
2019-03-31T18:45:31.083Z,4.10
2019-03-31T18:48:03.486Z,5.63
2019-03-31T18:50:35.403Z,7.13
2019-03-31T18:53:11.293Z,6.93
2019-03-31T18:55:50.283Z,4.30
2019-03-31T18:58:40.884Z,7.73
2019-03-31T19:01:46.413Z,4.13
2019-03-31T19:04:36.958Z,3.70
2019-03-31T19:07:27.201Z,3.90
2019-03-31T19:10:07.678Z,3.90
2019-03-31T19:12:56.660Z,6.53
2019-03-31T19:15:45.914Z,10.70
2019-03-31T19:18:35.645Z,9.40
2019-03-31T19:21:22.747Z,10.90
2019-03-31T19:24:06.492Z,7.97
2019-03-31T19:26:54.828Z,8.83
2019-03-31T19:29:39.051Z,13.40
2019-03-31T19:32:18.850Z,11.23
2019-03-31T19:35:09.514Z,14.47
2019-03-31T19:37:58.761Z,12.50
2019-03-31T19:40:43.126Z,13.53
2019-03-31T19:43:30.484Z,17.27
2019-03-31T19:46:19.891Z,15.93
2019-03-31T19:49:26.112Z,14.40
2019-03-31T19:52:16.833Z,16.47
2019-03-31T19:55:00.381Z,25.70
2019-03-31T19:57:49.519Z,16.23
2019-03-31T20:00:46.924Z,17.50
2019-03-31T20:03:44.000Z,24.50
2019-03-31T20:06:26.525Z,20.40
2019-03-31T20:09:19.881Z,18.90
2019-03-31T20:12:10.519Z,21.60
2019-03-31T20:14:50.218Z,17.97
2019-03-31T20:17:40.795Z,24.30
2019-03-31T20:20:37.485Z,19.67
2019-03-31T20:23:34.071Z,21.27
2019-03-31T20:26:21.768Z,18.00
2019-03-31T20:29:18.737Z,21.83
2019-03-31T20:31:58.691Z,18.47
2019-03-31T20:34:38.892Z,23.37
2019-03-31T20:37:24.665Z,16.43
2019-03-31T20:40:13.895Z,17.30
2019-03-31T20:43:08.215Z,18.60
2019-03-31T20:45:39.940Z,20.00
2019-03-31T20:48:12.135Z,20.77
2019-03-31T20:50:44.095Z,20.20
2019-03-31T20:53:16.067Z,15.60
2019-03-31T20:55:47.992Z,33.57
2019-03-31T20:58:19.686Z,19.70
2019-03-31T21:00:51.447Z,15.87
2019-03-31T21:03:23.894Z,20.23
2019-03-31T21:05:56.697Z,22.13
2019-03-31T21:08:28.939Z,28.83
2019-03-31T21:11:00.901Z,23.97
2019-03-31T21:13:32.578Z,25.77
2019-03-31T21:16:04.331Z,25.63
2019-03-31T21:18:36.723Z,28.20
2019-03-31T21:21:08.525Z,27.37
2019-03-31T21:23:40.329Z,27.87
2019-03-31T21:26:12.010Z,38.20
2019-03-31T21:28:43.975Z,31.37
2019-03-31T21:31:15.919Z,30.60
2019-03-31T21:33:48.359Z,29.80
2019-03-31T21:36:20.113Z,30.27
2019-03-31T21:38:51.896Z,29.37
2019-03-31T21:41:23.759Z,31.43
2019-03-31T21:43:55.673Z,36.20
2019-03-31T21:46:27.775Z,33.90
2019-03-31T21:49:00.348Z,28.27
2019-03-31T21:51:32.069Z,33.57
2019-03-31T21:54:03.859Z,35.57
2019-03-31T21:56:35.499Z,43.10
2019-03-31T21:59:07.182Z,31.13
2019-03-31T22:01:38.976Z,33.47
2019-03-31T22:04:12.943Z,33.00
2019-03-31T22:06:45.410Z,33.17
2019-03-31T22:09:17.197Z,33.50
2019-03-31T22:11:48.938Z,33.60
2019-03-31T22:14:20.723Z,35.50
2019-03-31T22:16:52.407Z,31.43
2019-03-31T22:19:26.316Z,39.30
2019-03-31T22:21:58.005Z,38.93
2019-03-31T22:24:30.166Z,30.63
2019-03-31T22:27:01.843Z,31.20
2019-03-31T22:29:33.556Z,34.03
2019-03-31T22:32:05.239Z,33.57
2019-03-31T22:34:37.527Z,35.07
2019-03-31T22:37:09.323Z,35.37
2019-03-31T22:39:41.149Z,32.53
2019-03-31T22:42:12.807Z,32.10
2019-03-31T22:44:44.507Z,33.93
2019-03-31T22:47:16.155Z,33.30
2019-03-31T22:49:48.477Z,33.20
2019-03-31T22:52:20.286Z,31.57
2019-03-31T22:54:51.968Z,32.90
2019-03-31T22:57:23.651Z,31.40
2019-03-31T22:59:55.366Z,35.30
2019-03-31T23:02:27.922Z,30.30
2019-03-31T23:05:00.402Z,32.33
2019-03-31T23:07:32.165Z,34.13
2019-03-31T23:10:03.918Z,33.17
2019-03-31T23:12:35.586Z,28.90
2019-03-31T23:15:07.288Z,29.70
2019-03-31T23:17:38.904Z,31.63
2019-03-31T23:20:11.346Z,28.80
2019-03-31T23:22:42.982Z,32.53
2019-03-31T23:25:14.980Z,35.90
2019-03-31T23:27:46.590Z,32.87
2019-03-31T23:30:18.722Z,36.20
2019-03-31T23:32:50.352Z,37.57
2019-03-31T23:35:22.584Z,32.63
2019-03-31T23:37:54.230Z,41.23
2019-03-31T23:40:26.281Z,32.20
2019-03-31T23:42:57.890Z,39.27
2019-03-31T23:45:32.275Z,38.07
2019-03-31T23:48:04.059Z,34.07
2019-03-31T23:50:35.735Z,32.20
2019-03-31T23:53:07.824Z,36.47
2019-03-31T23:55:39.596Z,43.77
2019-03-31T23:58:11.280Z,39.30
